sensor_id;sensor_type;location;lat;lon;timestamp;P1;durP1;ratioP1;P2;durP2;ratioP2
26756;SDS011;23848;49.798;10.228;2022-07-22T00:00:03;10.00;;;8.02;;
26756;SDS011;23848;49.798;10.228;2022-07-22T00:02:32;10.57;;;8.63;;
26756;SDS011;23848;49.798;10.228;2022-07-22T00:05:02;11.10;;;7.68;;
26756;SDS011;23848;49.798;10.228;2022-07-22T00:07:30;8.65;;;7.32;;
26756;SDS011;23848;49.798;10.228;2022-07-22T00:09:59;9.63;;;7.93;;
26756;SDS011;23848;49.798;10.228;2022-07-22T00:12:27;8.50;;;7.20;;
26756;SDS011;23848;49.798;10.228;2022-07-22T00:14:55;8.15;;;7.18;;
26756;SDS011;23848;49.798;10.228;2022-07-22T00:17:24;9.63;;;7.45;;
26756;SDS011;23848;49.798;10.228;2022-07-22T00:19:52;12.57;;;7.82;;
26756;SDS011;23848;49.798;10.228;2022-07-22T00:22:22;8.50;;;7.15;;
26756;SDS011;23848;49.798;10.228;2022-07-22T00:24:50;9.35;;;7.40;;
26756;SDS011;23848;49.798;10.228;2022-07-22T00:27:18;9.45;;;7.53;;
26756;SDS011;23848;49.798;10.228;2022-07-22T00:29:47;9.30;;;7.53;;
26756;SDS011;23848;49.798;10.228;2022-07-22T00:32:15;9.80;;;7.95;;
26756;SDS011;23848;49.798;10.228;2022-07-22T00:34:44;9.32;;;7.82;;
26756;SDS011;23848;49.798;10.228;2022-07-22T00:37:12;9.65;;;7.93;;
26756;SDS011;23848;49.798;10.228;2022-07-22T00:39:42;9.35;;;7.75;;
26756;SDS011;23848;49.798;10.228;2022-07-22T00:42:10;9.27;;;7.97;;
26756;SDS011;23848;49.798;10.228;2022-07-22T00:44:38;7.68;;;6.85;;
26756;SDS011;23848;49.798;10.228;2022-07-22T00:47:07;8.82;;;7.60;;
26756;SDS011;23848;49.798;10.228;2022-07-22T00:49:36;9.82;;;7.47;;
26756;SDS011;23848;49.798;10.228;2022-07-22T00:52:04;9.88;;;7.55;;
26756;SDS011;23848;49.798;10.228;2022-07-22T00:54:33;10.35;;;7.70;;
26756;SDS011;23848;49.798;10.228;2022-07-22T00:57:03;10.02;;;7.55;;
26756;SDS011;23848;49.798;10.228;2022-07-22T00:59:31;11.98;;;8.70;;
26756;SDS011;23848;49.798;10.228;2022-07-22T01:02:00;11.95;;;7.68;;
26756;SDS011;23848;49.798;10.228;2022-07-22T01:04:28;8.05;;;6.80;;
26756;SDS011;23848;49.798;10.228;2022-07-22T01:06:57;8.65;;;7.50;;
26756;SDS011;23848;49.798;10.228;2022-07-22T01:09:25;9.75;;;8.10;;
26756;SDS011;23848;49.798;10.228;2022-07-22T01:11:53;10.18;;;8.13;;
26756;SDS011;23848;49.798;10.228;2022-07-22T01:14:23;11.68;;;8.43;;
26756;SDS011;23848;49.798;10.228;2022-07-22T01:16:52;11.07;;;8.35;;
26756;SDS011;23848;49.798;10.228;2022-07-22T01:19:20;10.73;;;8.55;;
26756;SDS011;23848;49.798;10.228;2022-07-22T01:21:50;9.48;;;8.00;;
26756;SDS011;23848;49.798;10.228;2022-07-22T01:24:18;11.35;;;8.45;;
26756;SDS011;23848;49.798;10.228;2022-07-22T01:26:46;10.15;;;8.55;;
26756;SDS011;23848;49.798;10.228;2022-07-22T01:29:15;10.32;;;8.60;;
26756;SDS011;23848;49.798;10.228;2022-07-22T01:31:43;10.52;;;8.73;;
26756;SDS011;23848;49.798;10.228;2022-07-22T01:34:12;10.13;;;8.55;;
26756;SDS011;23848;49.798;10.228;2022-07-22T01:36:40;10.18;;;8.35;;
26756;SDS011;23848;49.798;10.228;2022-07-22T01:39:10;9.95;;;7.65;;
26756;SDS011;23848;49.798;10.228;2022-07-22T01:41:40;10.60;;;7.68;;
26756;SDS011;23848;49.798;10.228;2022-07-22T01:44:08;10.85;;;8.38;;
26756;SDS011;23848;49.798;10.228;2022-07-22T01:46:37;11.02;;;8.68;;
26756;SDS011;23848;49.798;10.228;2022-07-22T01:49:05;10.45;;;8.50;;
26756;SDS011;23848;49.798;10.228;2022-07-22T01:51:34;10.48;;;8.88;;
26756;SDS011;23848;49.798;10.228;2022-07-22T01:54:02;11.52;;;8.80;;
26756;SDS011;23848;49.798;10.228;2022-07-22T01:56:32;11.13;;;8.73;;
26756;SDS011;23848;49.798;10.228;2022-07-22T01:59:00;10.77;;;8.70;;
26756;SDS011;23848;49.798;10.228;2022-07-22T02:01:29;13.20;;;9.05;;
26756;SDS011;23848;49.798;10.228;2022-07-22T02:03:57;10.75;;;9.05;;
26756;SDS011;23848;49.798;10.228;2022-07-22T02:06:25;11.85;;;9.45;;
26756;SDS011;23848;49.798;10.228;2022-07-22T02:08:54;11.32;;;8.80;;
26756;SDS011;23848;49.798;10.228;2022-07-22T02:11:23;10.23;;;8.77;;
26756;SDS011;23848;49.798;10.228;2022-07-22T02:13:52;9.20;;;8.18;;
26756;SDS011;23848;49.798;10.228;2022-07-22T02:16:21;11.82;;;8.50;;
26756;SDS011;23848;49.798;10.228;2022-07-22T02:18:49;9.57;;;8.43;;
26756;SDS011;23848;49.798;10.228;2022-07-22T02:21:19;9.90;;;8.30;;
26756;SDS011;23848;49.798;10.228;2022-07-22T02:23:47;10.52;;;7.80;;
26756;SDS011;23848;49.798;10.228;2022-07-22T02:26:16;10.48;;;8.63;;
26756;SDS011;23848;49.798;10.228;2022-07-22T02:28:44;10.57;;;8.73;;
26756;SDS011;23848;49.798;10.228;2022-07-22T02:31:14;10.65;;;8.27;;
26756;SDS011;23848;49.798;10.228;2022-07-22T02:33:42;13.55;;;8.88;;
26756;SDS011;23848;49.798;10.228;2022-07-22T02:36:11;10.65;;;9.07;;
26756;SDS011;23848;49.798;10.228;2022-07-22T02:38:39;10.57;;;9.00;;
26756;SDS011;23848;49.798;10.228;2022-07-22T02:41:07;10.77;;;8.60;;
26756;SDS011;23848;49.798;10.228;2022-07-22T02:43:36;12.00;;;8.75;;
26756;SDS011;23848;49.798;10.228;2022-07-22T02:46:04;12.10;;;9.48;;
26756;SDS011;23848;49.798;10.228;2022-07-22T02:48:34;11.65;;;9.07;;
26756;SDS011;23848;49.798;10.228;2022-07-22T02:51:03;11.27;;;9.13;;
26756;SDS011;23848;49.798;10.228;2022-07-22T02:53:32;11.10;;;8.50;;
26756;SDS011;23848;49.798;10.228;2022-07-22T02:56:00;10.50;;;9.00;;
26756;SDS011;23848;49.798;10.228;2022-07-22T02:58:29;12.18;;;9.02;;
26756;SDS011;23848;49.798;10.228;2022-07-22T03:00:57;11.25;;;8.68;;
26756;SDS011;23848;49.798;10.228;2022-07-22T03:03:25;10.80;;;8.63;;
26756;SDS011;23848;49.798;10.228;2022-07-22T03:05:55;11.73;;;8.90;;
26756;SDS011;23848;49.798;10.228;2022-07-22T03:08:25;11.50;;;9.00;;
26756;SDS011;23848;49.798;10.228;2022-07-22T03:10:53;13.45;;;8.95;;
26756;SDS011;23848;49.798;10.228;2022-07-22T03:13:22;11.98;;;9.30;;
26756;SDS011;23848;49.798;10.228;2022-07-22T03:15:50;11.10;;;7.93;;
26756;SDS011;23848;49.798;10.228;2022-07-22T03:18:18;10.45;;;8.63;;
26756;SDS011;23848;49.798;10.228;2022-07-22T03:20:47;11.45;;;8.45;;
26756;SDS011;23848;49.798;10.228;2022-07-22T03:23:17;10.68;;;8.57;;
26756;SDS011;23848;49.798;10.228;2022-07-22T03:25:45;10.05;;;8.23;;
26756;SDS011;23848;49.798;10.228;2022-07-22T03:28:13;11.88;;;8.57;;
26756;SDS011;23848;49.798;10.228;2022-07-22T03:30:42;10.30;;;7.85;;
26756;SDS011;23848;49.798;10.228;2022-07-22T03:33:10;9.73;;;8.05;;
26756;SDS011;23848;49.798;10.228;2022-07-22T03:35:38;10.00;;;8.18;;
26756;SDS011;23848;49.798;10.228;2022-07-22T03:38:07;9.77;;;8.57;;
26756;SDS011;23848;49.798;10.228;2022-07-22T03:40:37;11.35;;;8.93;;
26756;SDS011;23848;49.798;10.228;2022-07-22T03:43:05;13.45;;;9.88;;
26756;SDS011;23848;49.798;10.228;2022-07-22T03:45:33;10.60;;;9.10;;
26756;SDS011;23848;49.798;10.228;2022-07-22T03:48:02;11.48;;;9.55;;
26756;SDS011;23848;49.798;10.228;2022-07-22T03:50:30;11.73;;;9.25;;
26756;SDS011;23848;49.798;10.228;2022-07-22T03:52:59;11.80;;;9.02;;
26756;SDS011;23848;49.798;10.228;2022-07-22T03:55:27;10.73;;;8.82;;
26756;SDS011;23848;49.798;10.228;2022-07-22T03:57:57;11.02;;;9.00;;
26756;SDS011;23848;49.798;10.228;2022-07-22T04:00:27;12.85;;;9.40;;
26756;SDS011;23848;49.798;10.228;2022-07-22T04:02:56;12.27;;;10.60;;
26756;SDS011;23848;49.798;10.228;2022-07-22T04:05:24;10.52;;;8.73;;
26756;SDS011;23848;49.798;10.228;2022-07-22T04:07:53;11.68;;;9.57;;
26756;SDS011;23848;49.798;10.228;2022-07-22T04:10:23;11.50;;;9.85;;
26756;SDS011;23848;49.798;10.228;2022-07-22T04:12:52;13.43;;;9.77;;
26756;SDS011;23848;49.798;10.228;2022-07-22T04:15:21;11.52;;;9.38;;
26756;SDS011;23848;49.798;10.228;2022-07-22T04:17:51;10.80;;;9.43;;
26756;SDS011;23848;49.798;10.228;2022-07-22T04:20:19;14.18;;;10.02;;
26756;SDS011;23848;49.798;10.228;2022-07-22T04:22:47;11.57;;;8.77;;
26756;SDS011;23848;49.798;10.228;2022-07-22T04:25:16;10.73;;;8.88;;
26756;SDS011;23848;49.798;10.228;2022-07-22T04:27:44;10.95;;;8.75;;
26756;SDS011;23848;49.798;10.228;2022-07-22T04:30:13;13.52;;;10.00;;
26756;SDS011;23848;49.798;10.228;2022-07-22T04:32:42;11.60;;;10.10;;
26756;SDS011;23848;49.798;10.228;2022-07-22T04:35:11;12.40;;;10.15;;
26756;SDS011;23848;49.798;10.228;2022-07-22T04:37:39;11.52;;;9.45;;
26756;SDS011;23848;49.798;10.228;2022-07-22T04:40:08;12.90;;;9.63;;
26756;SDS011;23848;49.798;10.228;2022-07-22T04:42:37;12.38;;;10.02;;
26756;SDS011;23848;49.798;10.228;2022-07-22T04:45:05;12.98;;;9.80;;
26756;SDS011;23848;49.798;10.228;2022-07-22T04:47:34;13.45;;;9.60;;
26756;SDS011;23848;49.798;10.228;2022-07-22T04:50:04;15.75;;;14.13;;
26756;SDS011;23848;49.798;10.228;2022-07-22T04:52:32;13.00;;;10.88;;
26756;SDS011;23848;49.798;10.228;2022-07-22T04:55:01;17.55;;;14.35;;
26756;SDS011;23848;49.798;10.228;2022-07-22T04:57:29;13.65;;;11.95;;
26756;SDS011;23848;49.798;10.228;2022-07-22T04:59:58;16.02;;;12.57;;
26756;SDS011;23848;49.798;10.228;2022-07-22T05:02:26;16.40;;;12.70;;
26756;SDS011;23848;49.798;10.228;2022-07-22T05:04:58;12.93;;;10.55;;
26756;SDS011;23848;49.798;10.228;2022-07-22T05:07:28;14.48;;;11.27;;
26756;SDS011;23848;49.798;10.228;2022-07-22T05:09:58;13.70;;;10.07;;
26756;SDS011;23848;49.798;10.228;2022-07-22T05:12:26;15.50;;;10.32;;
26756;SDS011;23848;49.798;10.228;2022-07-22T05:14:55;12.57;;;10.38;;
26756;SDS011;23848;49.798;10.228;2022-07-22T05:17:23;12.27;;;10.40;;
26756;SDS011;23848;49.798;10.228;2022-07-22T05:19:52;12.27;;;10.52;;
26756;SDS011;23848;49.798;10.228;2022-07-22T05:22:20;12.68;;;10.48;;
26756;SDS011;23848;49.798;10.228;2022-07-22T05:24:50;12.90;;;10.18;;
26756;SDS011;23848;49.798;10.228;2022-07-22T05:27:18;14.75;;;11.32;;
26756;SDS011;23848;49.798;10.228;2022-07-22T05:29:47;13.15;;;10.43;;
26756;SDS011;23848;49.798;10.228;2022-07-22T05:32:15;13.77;;;11.32;;
26756;SDS011;23848;49.798;10.228;2022-07-22T05:34:43;12.13;;;10.60;;
26756;SDS011;23848;49.798;10.228;2022-07-22T05:37:12;13.55;;;10.73;;
26756;SDS011;23848;49.798;10.228;2022-07-22T05:39:42;14.27;;;10.75;;
26756;SDS011;23848;49.798;10.228;2022-07-22T05:42:12;12.30;;;10.40;;
26756;SDS011;23848;49.798;10.228;2022-07-22T05:44:40;11.80;;;9.25;;
26756;SDS011;23848;49.798;10.228;2022-07-22T05:47:08;9.10;;;7.43;;
26756;SDS011;23848;49.798;10.228;2022-07-22T05:49:37;8.15;;;6.93;;
26756;SDS011;23848;49.798;10.228;2022-07-22T05:52:10;8.27;;;6.32;;
26756;SDS011;23848;49.798;10.228;2022-07-22T05:54:39;9.88;;;6.05;;
26756;SDS011;23848;49.798;10.228;2022-07-22T05:57:07;8.23;;;6.47;;
26756;SDS011;23848;49.798;10.228;2022-07-22T05:59:37;8.52;;;6.88;;
26756;SDS011;23848;49.798;10.228;2022-07-22T06:02:07;8.45;;;6.20;;
26756;SDS011;23848;49.798;10.228;2022-07-22T06:04:35;10.88;;;6.72;;
26756;SDS011;23848;49.798;10.228;2022-07-22T06:07:05;9.85;;;6.85;;
26756;SDS011;23848;49.798;10.228;2022-07-22T06:09:33;10.25;;;6.90;;
26756;SDS011;23848;49.798;10.228;2022-07-22T06:12:02;9.00;;;6.53;;
26756;SDS011;23848;49.798;10.228;2022-07-22T06:14:30;8.38;;;6.75;;
26756;SDS011;23848;49.798;10.228;2022-07-22T06:17:00;8.98;;;6.53;;
26756;SDS011;23848;49.798;10.228;2022-07-22T06:19:28;10.27;;;6.57;;
26756;SDS011;23848;49.798;10.228;2022-07-22T06:21:58;8.70;;;6.63;;
26756;SDS011;23848;49.798;10.228;2022-07-22T06:24:26;8.30;;;7.00;;
26756;SDS011;23848;49.798;10.228;2022-07-22T06:26:55;8.32;;;6.00;;
26756;SDS011;23848;49.798;10.228;2022-07-22T06:29:23;9.27;;;6.88;;
26756;SDS011;23848;49.798;10.228;2022-07-22T06:31:51;7.50;;;5.70;;
26756;SDS011;23848;49.798;10.228;2022-07-22T06:34:21;8.45;;;6.40;;
26756;SDS011;23848;49.798;10.228;2022-07-22T06:36:52;7.10;;;5.68;;
26756;SDS011;23848;49.798;10.228;2022-07-22T06:39:20;9.20;;;5.97;;
26756;SDS011;23848;49.798;10.228;2022-07-22T06:41:48;7.72;;;5.85;;
26756;SDS011;23848;49.798;10.228;2022-07-22T06:44:17;7.53;;;5.93;;
26756;SDS011;23848;49.798;10.228;2022-07-22T06:46:45;7.97;;;5.50;;
26756;SDS011;23848;49.798;10.228;2022-07-22T06:49:14;7.47;;;5.60;;
26756;SDS011;23848;49.798;10.228;2022-07-22T06:51:51;7.07;;;5.65;;
26756;SDS011;23848;49.798;10.228;2022-07-22T06:54:19;7.70;;;5.50;;
26756;SDS011;23848;49.798;10.228;2022-07-22T06:56:48;7.38;;;5.10;;
26756;SDS011;23848;49.798;10.228;2022-07-22T06:59:17;6.32;;;4.97;;
26756;SDS011;23848;49.798;10.228;2022-07-22T07:01:45;6.25;;;4.78;;
26756;SDS011;23848;49.798;10.228;2022-07-22T07:04:13;6.32;;;5.05;;
26756;SDS011;23848;49.798;10.228;2022-07-22T07:06:43;7.28;;;5.65;;
26756;SDS011;23848;49.798;10.228;2022-07-22T07:09:12;6.78;;;5.00;;
26756;SDS011;23848;49.798;10.228;2022-07-22T07:11:41;7.05;;;5.20;;
26756;SDS011;23848;49.798;10.228;2022-07-22T07:14:09;5.47;;;4.55;;
26756;SDS011;23848;49.798;10.228;2022-07-22T07:16:37;5.28;;;4.45;;
26756;SDS011;23848;49.798;10.228;2022-07-22T07:19:06;6.32;;;4.72;;
26756;SDS011;23848;49.798;10.228;2022-07-22T07:21:34;6.40;;;4.90;;
26756;SDS011;23848;49.798;10.228;2022-07-22T07:24:03;5.97;;;4.50;;
26756;SDS011;23848;49.798;10.228;2022-07-22T07:26:32;6.75;;;4.55;;
26756;SDS011;23848;49.798;10.228;2022-07-22T07:29:02;6.15;;;4.55;;
26756;SDS011;23848;49.798;10.228;2022-07-22T07:31:30;5.43;;;4.40;;
26756;SDS011;23848;49.798;10.228;2022-07-22T07:34:00;7.05;;;4.53;;
26756;SDS011;23848;49.798;10.228;2022-07-22T07:36:29;5.85;;;4.63;;
26756;SDS011;23848;49.798;10.228;2022-07-22T07:38:57;7.18;;;5.22;;
26756;SDS011;23848;49.798;10.228;2022-07-22T07:41:26;6.55;;;4.50;;
26756;SDS011;23848;49.798;10.228;2022-07-22T07:43:56;5.47;;;4.30;;
26756;SDS011;23848;49.798;10.228;2022-07-22T07:46:25;6.82;;;4.93;;
26756;SDS011;23848;49.798;10.228;2022-07-22T07:48:54;6.60;;;5.40;;
26756;SDS011;23848;49.798;10.228;2022-07-22T07:51:23;6.38;;;4.53;;
26756;SDS011;23848;49.798;10.228;2022-07-22T07:53:52;5.13;;;4.07;;
26756;SDS011;23848;49.798;10.228;2022-07-22T07:56:20;8.07;;;4.65;;
26756;SDS011;23848;49.798;10.228;2022-07-22T07:58:49;5.78;;;4.25;;
26756;SDS011;23848;49.798;10.228;2022-07-22T08:01:38;5.03;;;3.95;;
26756;SDS011;23848;49.798;10.228;2022-07-22T08:04:23;5.47;;;4.35;;
26756;SDS011;23848;49.798;10.228;2022-07-22T08:07:04;5.43;;;4.13;;
26756;SDS011;23848;49.798;10.228;2022-07-22T08:09:32;5.65;;;4.25;;
26756;SDS011;23848;49.798;10.228;2022-07-22T08:12:03;5.28;;;3.95;;
26756;SDS011;23848;49.798;10.228;2022-07-22T08:14:32;5.65;;;4.20;;
26756;SDS011;23848;49.798;10.228;2022-07-22T08:17:02;5.75;;;4.13;;
26756;SDS011;23848;49.798;10.228;2022-07-22T08:19:31;4.85;;;4.18;;
26756;SDS011;23848;49.798;10.228;2022-07-22T08:21:59;5.07;;;4.07;;
26756;SDS011;23848;49.798;10.228;2022-07-22T08:24:28;5.43;;;3.92;;
26756;SDS011;23848;49.798;10.228;2022-07-22T08:26:56;5.63;;;4.10;;
26756;SDS011;23848;49.798;10.228;2022-07-22T08:29:25;5.70;;;4.50;;
26756;SDS011;23848;49.798;10.228;2022-07-22T08:31:53;5.68;;;4.45;;
26756;SDS011;23848;49.798;10.228;2022-07-22T08:34:23;5.40;;;4.45;;
26756;SDS011;23848;49.798;10.228;2022-07-22T08:36:51;5.07;;;4.07;;
26756;SDS011;23848;49.798;10.228;2022-07-22T08:39:19;5.35;;;4.18;;
26756;SDS011;23848;49.798;10.228;2022-07-22T08:41:48;5.88;;;4.22;;
26756;SDS011;23848;49.798;10.228;2022-07-22T08:44:17;4.60;;;3.97;;
26756;SDS011;23848;49.798;10.228;2022-07-22T08:46:45;7.07;;;4.38;;
26756;SDS011;23848;49.798;10.228;2022-07-22T08:49:14;7.18;;;4.60;;
26756;SDS011;23848;49.798;10.228;2022-07-22T08:51:44;5.85;;;4.60;;
26756;SDS011;23848;49.798;10.228;2022-07-22T08:54:13;5.95;;;4.60;;
26756;SDS011;23848;49.798;10.228;2022-07-22T08:56:41;6.35;;;4.63;;
26756;SDS011;23848;49.798;10.228;2022-07-22T08:59:10;6.03;;;4.25;;
26756;SDS011;23848;49.798;10.228;2022-07-22T09:01:38;5.53;;;4.20;;
26756;SDS011;23848;49.798;10.228;2022-07-22T09:04:26;6.30;;;4.65;;
26756;SDS011;23848;49.798;10.228;2022-07-22T09:06:56;6.82;;;4.85;;
26756;SDS011;23848;49.798;10.228;2022-07-22T09:09:29;5.80;;;4.25;;
26756;SDS011;23848;49.798;10.228;2022-07-22T09:12:03;6.38;;;4.85;;
26756;SDS011;23848;49.798;10.228;2022-07-22T09:14:42;6.07;;;4.38;;
26756;SDS011;23848;49.798;10.228;2022-07-22T09:17:24;7.13;;;4.57;;
26756;SDS011;23848;49.798;10.228;2022-07-22T09:19:53;6.25;;;4.78;;
26756;SDS011;23848;49.798;10.228;2022-07-22T09:22:35;5.40;;;4.57;;
26756;SDS011;23848;49.798;10.228;2022-07-22T09:27:55;7.32;;;4.82;;
26756;SDS011;23848;49.798;10.228;2022-07-22T09:30:24;6.45;;;4.55;;
26756;SDS011;23848;49.798;10.228;2022-07-22T09:32:54;6.35;;;4.43;;
26756;SDS011;23848;49.798;10.228;2022-07-22T09:35:25;7.15;;;5.10;;
26756;SDS011;23848;49.798;10.228;2022-07-22T09:37:57;8.35;;;5.10;;
26756;SDS011;23848;49.798;10.228;2022-07-22T09:40:26;6.25;;;4.70;;
26756;SDS011;23848;49.798;10.228;2022-07-22T09:42:56;5.70;;;4.72;;
26756;SDS011;23848;49.798;10.228;2022-07-22T09:45:27;5.28;;;4.10;;
26756;SDS011;23848;49.798;10.228;2022-07-22T09:47:56;5.75;;;4.60;;
26756;SDS011;23848;49.798;10.228;2022-07-22T09:50:26;6.78;;;4.72;;
26756;SDS011;23848;49.798;10.228;2022-07-22T09:52:57;6.05;;;4.70;;
26756;SDS011;23848;49.798;10.228;2022-07-22T09:55:29;9.40;;;5.07;;
26756;SDS011;23848;49.798;10.228;2022-07-22T09:57:59;5.72;;;4.43;;
26756;SDS011;23848;49.798;10.228;2022-07-22T10:00:28;5.93;;;4.53;;
26756;SDS011;23848;49.798;10.228;2022-07-22T10:02:57;5.32;;;4.63;;
26756;SDS011;23848;49.798;10.228;2022-07-22T10:05:26;5.47;;;4.43;;
26756;SDS011;23848;49.798;10.228;2022-07-22T10:07:56;5.70;;;4.90;;
26756;SDS011;23848;49.798;10.228;2022-07-22T10:10:27;5.90;;;4.80;;
26756;SDS011;23848;49.798;10.228;2022-07-22T10:12:56;6.68;;;4.88;;
26756;SDS011;23848;49.798;10.228;2022-07-22T10:15:26;7.07;;;4.90;;
26756;SDS011;23848;49.798;10.228;2022-07-22T10:18:01;6.10;;;4.50;;
26756;SDS011;23848;49.798;10.228;2022-07-22T10:20:33;6.32;;;4.72;;
26756;SDS011;23848;49.798;10.228;2022-07-22T10:23:03;7.78;;;4.88;;
26756;SDS011;23848;49.798;10.228;2022-07-22T10:25:48;7.45;;;5.20;;
26756;SDS011;23848;49.798;10.228;2022-07-22T10:28:20;6.28;;;4.80;;
26756;SDS011;23848;49.798;10.228;2022-07-22T10:30:49;9.00;;;4.60;;
26756;SDS011;23848;49.798;10.228;2022-07-22T10:33:18;7.80;;;4.90;;
26756;SDS011;23848;49.798;10.228;2022-07-22T10:35:54;6.00;;;4.95;;
26756;SDS011;23848;49.798;10.228;2022-07-22T10:38:24;6.03;;;5.13;;
26756;SDS011;23848;49.798;10.228;2022-07-22T10:40:53;5.65;;;4.45;;
26756;SDS011;23848;49.798;10.228;2022-07-22T10:43:23;9.23;;;4.72;;
26756;SDS011;23848;49.798;10.228;2022-07-22T10:45:52;5.35;;;4.38;;
26756;SDS011;23848;49.798;10.228;2022-07-22T10:48:22;6.88;;;4.78;;
26756;SDS011;23848;49.798;10.228;2022-07-22T10:50:54;6.85;;;5.05;;
26756;SDS011;23848;49.798;10.228;2022-07-22T10:53:25;6.65;;;4.80;;
26756;SDS011;23848;49.798;10.228;2022-07-22T10:56:07;5.90;;;4.82;;
26756;SDS011;23848;49.798;10.228;2022-07-22T10:58:40;6.72;;;4.70;;
26756;SDS011;23848;49.798;10.228;2022-07-22T11:01:10;6.63;;;4.90;;
26756;SDS011;23848;49.798;10.228;2022-07-22T11:03:39;8.15;;;5.32;;
26756;SDS011;23848;49.798;10.228;2022-07-22T11:06:15;7.22;;;5.25;;
26756;SDS011;23848;49.798;10.228;2022-07-22T11:08:46;7.25;;;5.18;;
26756;SDS011;23848;49.798;10.228;2022-07-22T11:11:15;6.80;;;5.22;;
26756;SDS011;23848;49.798;10.228;2022-07-22T11:13:44;6.60;;;4.95;;
26756;SDS011;23848;49.798;10.228;2022-07-22T11:16:13;6.63;;;4.63;;
26756;SDS011;23848;49.798;10.228;2022-07-22T11:18:49;7.50;;;5.32;;
26756;SDS011;23848;49.798;10.228;2022-07-22T11:21:18;7.07;;;5.13;;
26756;SDS011;23848;49.798;10.228;2022-07-22T11:23:50;6.20;;;5.10;;
26756;SDS011;23848;49.798;10.228;2022-07-22T11:26:26;5.78;;;4.47;;
26756;SDS011;23848;49.798;10.228;2022-07-22T11:28:54;5.82;;;4.43;;
26756;SDS011;23848;49.798;10.228;2022-07-22T11:31:23;6.43;;;4.57;;
26756;SDS011;23848;49.798;10.228;2022-07-22T11:33:51;6.32;;;5.05;;
26756;SDS011;23848;49.798;10.228;2022-07-22T11:36:20;5.95;;;4.75;;
26756;SDS011;23848;49.798;10.228;2022-07-22T11:38:51;6.20;;;5.00;;
26756;SDS011;23848;49.798;10.228;2022-07-22T11:41:19;6.97;;;5.30;;
26756;SDS011;23848;49.798;10.228;2022-07-22T11:43:48;5.63;;;4.45;;
26756;SDS011;23848;49.798;10.228;2022-07-22T11:46:17;6.43;;;4.68;;
26756;SDS011;23848;49.798;10.228;2022-07-22T11:48:46;5.72;;;4.32;;
26756;SDS011;23848;49.798;10.228;2022-07-22T11:51:14;6.13;;;4.20;;
26756;SDS011;23848;49.798;10.228;2022-07-22T11:53:47;7.47;;;5.07;;
26756;SDS011;23848;49.798;10.228;2022-07-22T11:56:17;6.43;;;4.50;;
26756;SDS011;23848;49.798;10.228;2022-07-22T11:58:47;6.97;;;4.53;;
26756;SDS011;23848;49.798;10.228;2022-07-22T12:01:17;4.95;;;4.43;;
26756;SDS011;23848;49.798;10.228;2022-07-22T12:03:46;7.00;;;4.80;;
26756;SDS011;23848;49.798;10.228;2022-07-22T12:06:18;8.40;;;5.68;;
26756;SDS011;23848;49.798;10.228;2022-07-22T12:08:48;6.47;;;4.60;;
26756;SDS011;23848;49.798;10.228;2022-07-22T12:11:19;6.60;;;4.70;;
26756;SDS011;23848;49.798;10.228;2022-07-22T12:13:52;5.15;;;4.18;;
26756;SDS011;23848;49.798;10.228;2022-07-22T12:16:25;6.80;;;4.88;;
26756;SDS011;23848;49.798;10.228;2022-07-22T12:18:55;6.32;;;4.70;;
26756;SDS011;23848;49.798;10.228;2022-07-22T12:21:25;5.50;;;4.75;;
26756;SDS011;23848;49.798;10.228;2022-07-22T12:23:58;5.63;;;4.72;;
26756;SDS011;23848;49.798;10.228;2022-07-22T12:26:42;6.18;;;4.75;;
26756;SDS011;23848;49.798;10.228;2022-07-22T12:31:41;5.25;;;4.43;;
26756;SDS011;23848;49.798;10.228;2022-07-22T12:34:09;5.55;;;4.20;;
26756;SDS011;23848;49.798;10.228;2022-07-22T12:36:37;5.93;;;4.38;;
26756;SDS011;23848;49.798;10.228;2022-07-22T12:39:13;6.68;;;4.85;;
26756;SDS011;23848;49.798;10.228;2022-07-22T12:41:47;5.97;;;4.93;;
26756;SDS011;23848;49.798;10.228;2022-07-22T12:44:16;5.15;;;4.22;;
26756;SDS011;23848;49.798;10.228;2022-07-22T12:46:45;6.60;;;4.90;;
26756;SDS011;23848;49.798;10.228;2022-07-22T12:49:15;5.78;;;4.50;;
26756;SDS011;23848;49.798;10.228;2022-07-22T12:54:31;6.22;;;4.30;;
26756;SDS011;23848;49.798;10.228;2022-07-22T12:57:04;5.57;;;4.17;;
26756;SDS011;23848;49.798;10.228;2022-07-22T12:59:33;5.78;;;4.38;;
26756;SDS011;23848;49.798;10.228;2022-07-22T13:02:01;7.78;;;4.32;;
26756;SDS011;23848;49.798;10.228;2022-07-22T13:04:30;5.57;;;4.45;;
26756;SDS011;23848;49.798;10.228;2022-07-22T13:06:58;5.38;;;4.45;;
26756;SDS011;23848;49.798;10.228;2022-07-22T13:09:27;5.93;;;4.15;;
26756;SDS011;23848;49.798;10.228;2022-07-22T13:11:55;5.97;;;4.30;;
26756;SDS011;23848;49.798;10.228;2022-07-22T13:14:25;7.20;;;4.88;;
26756;SDS011;23848;49.798;10.228;2022-07-22T13:17:00;6.43;;;4.78;;
26756;SDS011;23848;49.798;10.228;2022-07-22T13:19:30;6.13;;;4.63;;
26756;SDS011;23848;49.798;10.228;2022-07-22T13:21:58;5.45;;;4.60;;
26756;SDS011;23848;49.798;10.228;2022-07-22T13:24:27;5.93;;;4.53;;
26756;SDS011;23848;49.798;10.228;2022-07-22T13:26:55;4.90;;;4.03;;
26756;SDS011;23848;49.798;10.228;2022-07-22T13:29:25;4.35;;;3.80;;
26756;SDS011;23848;49.798;10.228;2022-07-22T13:31:54;5.95;;;4.55;;
26756;SDS011;23848;49.798;10.228;2022-07-22T13:34:44;5.85;;;4.43;;
26756;SDS011;23848;49.798;10.228;2022-07-22T13:37:12;5.45;;;3.97;;
26756;SDS011;23848;49.798;10.228;2022-07-22T13:39:41;7.25;;;4.55;;
26756;SDS011;23848;49.798;10.228;2022-07-22T13:42:12;9.73;;;4.38;;
26756;SDS011;23848;49.798;10.228;2022-07-22T13:44:45;5.90;;;4.80;;
26756;SDS011;23848;49.798;10.228;2022-07-22T13:47:13;5.88;;;4.35;;
26756;SDS011;23848;49.798;10.228;2022-07-22T13:49:42;5.05;;;4.30;;
26756;SDS011;23848;49.798;10.228;2022-07-22T13:52:16;6.32;;;4.07;;
26756;SDS011;23848;49.798;10.228;2022-07-22T13:54:45;6.07;;;4.55;;
26756;SDS011;23848;49.798;10.228;2022-07-22T13:57:17;8.07;;;4.03;;
26756;SDS011;23848;49.798;10.228;2022-07-22T13:59:47;6.30;;;4.03;;
26756;SDS011;23848;49.798;10.228;2022-07-22T14:02:15;4.97;;;4.28;;
26756;SDS011;23848;49.798;10.228;2022-07-22T14:04:47;5.55;;;4.28;;
26756;SDS011;23848;49.798;10.228;2022-07-22T14:07:16;5.18;;;4.65;;
26756;SDS011;23848;49.798;10.228;2022-07-22T14:09:44;5.57;;;4.60;;
26756;SDS011;23848;49.798;10.228;2022-07-22T14:12:15;4.78;;;4.10;;
26756;SDS011;23848;49.798;10.228;2022-07-22T14:14:44;6.03;;;4.57;;
26756;SDS011;23848;49.798;10.228;2022-07-22T14:17:14;6.30;;;4.85;;
26756;SDS011;23848;49.798;10.228;2022-07-22T14:19:47;5.03;;;4.25;;
26756;SDS011;23848;49.798;10.228;2022-07-22T14:22:25;5.45;;;4.20;;
26756;SDS011;23848;49.798;10.228;2022-07-22T14:24:54;6.57;;;3.85;;
26756;SDS011;23848;49.798;10.228;2022-07-22T14:27:22;7.32;;;4.40;;
26756;SDS011;23848;49.798;10.228;2022-07-22T14:29:50;5.85;;;4.38;;
26756;SDS011;23848;49.798;10.228;2022-07-22T14:32:21;6.57;;;4.60;;
26756;SDS011;23848;49.798;10.228;2022-07-22T14:34:50;5.82;;;4.07;;
26756;SDS011;23848;49.798;10.228;2022-07-22T14:37:21;5.60;;;4.25;;
26756;SDS011;23848;49.798;10.228;2022-07-22T14:39:52;5.07;;;4.20;;
26756;SDS011;23848;49.798;10.228;2022-07-22T14:42:21;7.32;;;4.35;;
26756;SDS011;23848;49.798;10.228;2022-07-22T14:44:50;6.32;;;4.68;;
26756;SDS011;23848;49.798;10.228;2022-07-22T14:47:19;5.18;;;4.10;;
26756;SDS011;23848;49.798;10.228;2022-07-22T14:49:48;5.13;;;4.28;;